sensor_id;sensor_type;location;lat;lon;timestamp;temperature;humidity
17202;DHT22;8717;53.588;10.176;2024-01-15T00:01:28;0.80;99.90
17202;DHT22;8717;53.588;10.176;2024-01-15T00:03:55;0.80;99.90
17202;DHT22;8717;53.588;10.176;2024-01-15T00:06:23;0.80;99.90
17202;DHT22;8717;53.588;10.176;2024-01-15T00:08:50;0.80;99.90
17202;DHT22;8717;53.588;10.176;2024-01-15T00:11:17;0.90;99.90
17202;DHT22;8717;53.588;10.176;2024-01-15T00:13:43;0.90;99.90
17202;DHT22;8717;53.588;10.176;2024-01-15T00:16:10;0.90;99.90
17202;DHT22;8717;53.588;10.176;2024-01-15T00:18:37;0.90;99.90
17202;DHT22;8717;53.588;10.176;2024-01-15T00:21:04;0.90;99.90
17202;DHT22;8717;53.588;10.176;2024-01-15T00:23:32;0.90;99.90
17202;DHT22;8717;53.588;10.176;2024-01-15T00:25:59;0.90;99.90
17202;DHT22;8717;53.588;10.176;2024-01-15T00:28:26;0.90;99.90
17202;DHT22;8717;53.588;10.176;2024-01-15T00:30:52;0.90;99.90
17202;DHT22;8717;53.588;10.176;2024-01-15T00:33:19;0.90;99.90
17202;DHT22;8717;53.588;10.176;2024-01-15T00:35:46;0.90;99.90
17202;DHT22;8717;53.588;10.176;2024-01-15T00:38:13;0.90;99.90
17202;DHT22;8717;53.588;10.176;2024-01-15T00:40:41;0.90;99.90
17202;DHT22;8717;53.588;10.176;2024-01-15T00:43:08;0.90;99.90
17202;DHT22;8717;53.588;10.176;2024-01-15T00:45:34;0.90;99.90
17202;DHT22;8717;53.588;10.176;2024-01-15T00:48:01;0.90;99.90
17202;DHT22;8717;53.588;10.176;2024-01-15T00:50:29;0.90;99.90
17202;DHT22;8717;53.588;10.176;2024-01-15T00:52:56;1.00;99.90
17202;DHT22;8717;53.588;10.176;2024-01-15T00:55:22;0.90;99.90
17202;DHT22;8717;53.588;10.176;2024-01-15T00:57:51;0.90;99.90
17202;DHT22;8717;53.588;10.176;2024-01-15T01:00:17;0.90;99.90
17202;DHT22;8717;53.588;10.176;2024-01-15T01:02:45;0.90;99.90
17202;DHT22;8717;53.588;10.176;2024-01-15T01:05:12;0.90;99.90
17202;DHT22;8717;53.588;10.176;2024-01-15T01:07:39;0.90;99.90
17202;DHT22;8717;53.588;10.176;2024-01-15T01:10:06;0.90;99.90
17202;DHT22;8717;53.588;10.176;2024-01-15T01:12:33;0.90;99.90
17202;DHT22;8717;53.588;10.176;2024-01-15T01:15:02;0.90;99.90
17202;DHT22;8717;53.588;10.176;2024-01-15T01:17:29;0.90;99.90
17202;DHT22;8717;53.588;10.176;2024-01-15T01:19:56;0.80;99.90
17202;DHT22;8717;53.588;10.176;2024-01-15T01:22:23;0.80;99.90
17202;DHT22;8717;53.588;10.176;2024-01-15T01:24:51;0.80;99.90
17202;DHT22;8717;53.588;10.176;2024-01-15T01:27:18;0.80;99.90
17202;DHT22;8717;53.588;10.176;2024-01-15T01:29:45;0.80;99.90
17202;DHT22;8717;53.588;10.176;2024-01-15T01:32:13;0.80;99.90
17202;DHT22;8717;53.588;10.176;2024-01-15T01:34:40;0.80;99.90
17202;DHT22;8717;53.588;10.176;2024-01-15T01:37:07;0.80;99.90
17202;DHT22;8717;53.588;10.176;2024-01-15T01:39:34;0.80;99.90
17202;DHT22;8717;53.588;10.176;2024-01-15T01:42:02;0.80;99.90
17202;DHT22;8717;53.588;10.176;2024-01-15T01:44:29;0.80;99.90
17202;DHT22;8717;53.588;10.176;2024-01-15T01:46:56;0.80;99.90
17202;DHT22;8717;53.588;10.176;2024-01-15T01:49:26;0.80;99.90
17202;DHT22;8717;53.588;10.176;2024-01-15T01:51:54;0.90;99.90
17202;DHT22;8717;53.588;10.176;2024-01-15T01:54:23;0.90;99.90
17202;DHT22;8717;53.588;10.176;2024-01-15T01:56:51;0.90;99.90
17202;DHT22;8717;53.588;10.176;2024-01-15T01:59:19;0.90;99.90
17202;DHT22;8717;53.588;10.176;2024-01-15T02:01:47;0.90;99.90
17202;DHT22;8717;53.588;10.176;2024-01-15T02:04:16;0.90;99.90
17202;DHT22;8717;53.588;10.176;2024-01-15T02:06:44;1.00;99.90
17202;DHT22;8717;53.588;10.176;2024-01-15T02:09:11;1.00;99.90
17202;DHT22;8717;53.588;10.176;2024-01-15T02:11:40;1.00;99.90
17202;DHT22;8717;53.588;10.176;2024-01-15T02:14:08;1.00;99.90
17202;DHT22;8717;53.588;10.176;2024-01-15T02:16:35;1.10;99.90
17202;DHT22;8717;53.588;10.176;2024-01-15T02:19:02;1.10;99.90
17202;DHT22;8717;53.588;10.176;2024-01-15T02:21:29;1.10;99.90
17202;DHT22;8717;53.588;10.176;2024-01-15T02:23:58;1.10;99.90
17202;DHT22;8717;53.588;10.176;2024-01-15T02:26:26;1.10;99.90
17202;DHT22;8717;53.588;10.176;2024-01-15T02:28:54;1.10;99.90
17202;DHT22;8717;53.588;10.176;2024-01-15T02:31:20;1.10;99.90
17202;DHT22;8717;53.588;10.176;2024-01-15T02:33:47;1.10;99.90
17202;DHT22;8717;53.588;10.176;2024-01-15T02:36:16;1.10;99.90
17202;DHT22;8717;53.588;10.176;2024-01-15T02:38:43;1.10;99.90
17202;DHT22;8717;53.588;10.176;2024-01-15T02:41:11;1.10;99.90
17202;DHT22;8717;53.588;10.176;2024-01-15T02:43:39;1.10;99.90
17202;DHT22;8717;53.588;10.176;2024-01-15T02:46:06;1.10;99.90
17202;DHT22;8717;53.588;10.176;2024-01-15T02:48:33;1.00;99.90
17202;DHT22;8717;53.588;10.176;2024-01-15T02:51:00;1.00;99.90
17202;DHT22;8717;53.588;10.176;2024-01-15T02:53:27;1.00;99.90
17202;DHT22;8717;53.588;10.176;2024-01-15T02:55:54;1.00;99.90
17202;DHT22;8717;53.588;10.176;2024-01-15T02:58:23;1.00;99.90
17202;DHT22;8717;53.588;10.176;2024-01-15T03:00:49;1.00;99.90
17202;DHT22;8717;53.588;10.176;2024-01-15T03:03:16;1.00;99.90
17202;DHT22;8717;53.588;10.176;2024-01-15T03:05:43;1.00;99.90
17202;DHT22;8717;53.588;10.176;2024-01-15T03:08:10;1.00;99.90
17202;DHT22;8717;53.588;10.176;2024-01-15T03:10:37;1.10;99.90
17202;DHT22;8717;53.588;10.176;2024-01-15T03:13:04;1.00;99.90
17202;DHT22;8717;53.588;10.176;2024-01-15T03:15:32;1.10;99.90
17202;DHT22;8717;53.588;10.176;2024-01-15T03:17:59;1.10;99.90
17202;DHT22;8717;53.588;10.176;2024-01-15T03:20:27;1.10;99.90
17202;DHT22;8717;53.588;10.176;2024-01-15T03:22:54;1.10;99.90
17202;DHT22;8717;53.588;10.176;2024-01-15T03:25:20;1.10;99.90
17202;DHT22;8717;53.588;10.176;2024-01-15T03:27:47;1.20;99.90
17202;DHT22;8717;53.588;10.176;2024-01-15T03:30:14;1.20;99.90
17202;DHT22;8717;53.588;10.176;2024-01-15T03:32:42;1.20;99.90
17202;DHT22;8717;53.588;10.176;2024-01-15T03:35:09;1.10;99.90
17202;DHT22;8717;53.588;10.176;2024-01-15T03:37:36;1.10;99.90
17202;DHT22;8717;53.588;10.176;2024-01-15T03:40:05;1.10;99.90
17202;DHT22;8717;53.588;10.176;2024-01-15T03:42:31;1.10;99.90
17202;DHT22;8717;53.588;10.176;2024-01-15T03:44:59;1.00;99.90
17202;DHT22;8717;53.588;10.176;2024-01-15T03:47:26;1.00;99.90
17202;DHT22;8717;53.588;10.176;2024-01-15T03:49:54;1.00;99.90
17202;DHT22;8717;53.588;10.176;2024-01-15T03:52:21;1.00;99.90
17202;DHT22;8717;53.588;10.176;2024-01-15T03:54:48;0.90;99.90
17202;DHT22;8717;53.588;10.176;2024-01-15T03:57:15;0.90;99.90
17202;DHT22;8717;53.588;10.176;2024-01-15T03:59:42;0.90;99.90
17202;DHT22;8717;53.588;10.176;2024-01-15T04:02:09;0.90;99.90
17202;DHT22;8717;53.588;10.176;2024-01-15T04:04:36;0.90;99.90
17202;DHT22;8717;53.588;10.176;2024-01-15T04:07:08;0.90;99.90
17202;DHT22;8717;53.588;10.176;2024-01-15T04:09:35;0.90;99.90
17202;DHT22;8717;53.588;10.176;2024-01-15T04:12:02;0.90;99.90
17202;DHT22;8717;53.588;10.176;2024-01-15T04:14:29;0.90;99.90
17202;DHT22;8717;53.588;10.176;2024-01-15T04:16:56;0.90;99.90
17202;DHT22;8717;53.588;10.176;2024-01-15T04:19:23;1.00;99.90
17202;DHT22;8717;53.588;10.176;2024-01-15T04:21:50;1.00;99.90
17202;DHT22;8717;53.588;10.176;2024-01-15T04:24:19;1.00;99.90
17202;DHT22;8717;53.588;10.176;2024-01-15T04:26:46;1.00;99.90
17202;DHT22;8717;53.588;10.176;2024-01-15T04:29:13;1.00;99.90
17202;DHT22;8717;53.588;10.176;2024-01-15T04:31:40;1.00;99.90
17202;DHT22;8717;53.588;10.176;2024-01-15T04:34:07;1.00;99.90
17202;DHT22;8717;53.588;10.176;2024-01-15T04:36:38;1.00;99.90
17202;DHT22;8717;53.588;10.176;2024-01-15T04:39:06;1.00;99.90
17202;DHT22;8717;53.588;10.176;2024-01-15T04:41:34;1.00;99.90
17202;DHT22;8717;53.588;10.176;2024-01-15T04:44:02;1.10;99.90
17202;DHT22;8717;53.588;10.176;2024-01-15T04:46:29;1.10;99.90
17202;DHT22;8717;53.588;10.176;2024-01-15T04:48:56;1.10;99.90
17202;DHT22;8717;53.588;10.176;2024-01-15T04:51:23;1.00;99.90
17202;DHT22;8717;53.588;10.176;2024-01-15T04:53:50;1.00;99.90
17202;DHT22;8717;53.588;10.176;2024-01-15T04:56:17;1.00;99.90
17202;DHT22;8717;53.588;10.176;2024-01-15T04:58:46;1.00;99.90
17202;DHT22;8717;53.588;10.176;2024-01-15T05:01:15;1.00;99.90
17202;DHT22;8717;53.588;10.176;2024-01-15T05:03:42;1.00;99.90
17202;DHT22;8717;53.588;10.176;2024-01-15T05:06:09;0.90;99.90
17202;DHT22;8717;53.588;10.176;2024-01-15T05:08:36;0.90;99.90
17202;DHT22;8717;53.588;10.176;2024-01-15T05:11:03;0.90;99.90
17202;DHT22;8717;53.588;10.176;2024-01-15T05:13:30;0.90;99.90
17202;DHT22;8717;53.588;10.176;2024-01-15T05:15:59;0.90;99.90
17202;DHT22;8717;53.588;10.176;2024-01-15T05:18:26;0.90;99.90
17202;DHT22;8717;53.588;10.176;2024-01-15T05:20:53;0.90;99.90
17202;DHT22;8717;53.588;10.176;2024-01-15T05:23:20;0.90;99.90
17202;DHT22;8717;53.588;10.176;2024-01-15T05:25:47;0.90;99.90
17202;DHT22;8717;53.588;10.176;2024-01-15T05:28:14;0.90;99.90
17202;DHT22;8717;53.588;10.176;2024-01-15T05:30:42;0.90;99.90
17202;DHT22;8717;53.588;10.176;2024-01-15T05:33:10;0.90;99.90
17202;DHT22;8717;53.588;10.176;2024-01-15T05:35:37;0.90;99.90
17202;DHT22;8717;53.588;10.176;2024-01-15T05:38:04;0.90;99.90
17202;DHT22;8717;53.588;10.176;2024-01-15T05:40:31;0.80;99.90
17202;DHT22;8717;53.588;10.176;2024-01-15T05:42:58;0.80;99.90
17202;DHT22;8717;53.588;10.176;2024-01-15T05:45:26;0.80;99.90
17202;DHT22;8717;53.588;10.176;2024-01-15T05:47:53;0.90;99.90
17202;DHT22;8717;53.588;10.176;2024-01-15T05:50:23;0.80;99.90
17202;DHT22;8717;53.588;10.176;2024-01-15T05:52:49;0.80;99.90
17202;DHT22;8717;53.588;10.176;2024-01-15T05:55:17;0.80;99.90
17202;DHT22;8717;53.588;10.176;2024-01-15T05:57:44;0.80;99.90
17202;DHT22;8717;53.588;10.176;2024-01-15T06:00:12;0.80;99.90
17202;DHT22;8717;53.588;10.176;2024-01-15T06:02:39;0.80;99.90
17202;DHT22;8717;53.588;10.176;2024-01-15T06:05:06;0.80;99.90
17202;DHT22;8717;53.588;10.176;2024-01-15T06:07:35;0.80;99.90
17202;DHT22;8717;53.588;10.176;2024-01-15T06:10:02;0.80;99.90
17202;DHT22;8717;53.588;10.176;2024-01-15T06:12:29;0.80;99.90
17202;DHT22;8717;53.588;10.176;2024-01-15T06:14:55;0.80;99.90
17202;DHT22;8717;53.588;10.176;2024-01-15T06:17:23;0.80;99.90
17202;DHT22;8717;53.588;10.176;2024-01-15T06:19:50;0.80;99.90
17202;DHT22;8717;53.588;10.176;2024-01-15T06:22:17;0.80;99.90
17202;DHT22;8717;53.588;10.176;2024-01-15T06:24:45;0.90;99.90
17202;DHT22;8717;53.588;10.176;2024-01-15T06:27:12;0.90;99.90
17202;DHT22;8717;53.588;10.176;2024-01-15T06:29:45;0.90;99.90
17202;DHT22;8717;53.588;10.176;2024-01-15T06:32:13;0.90;99.90
17202;DHT22;8717;53.588;10.176;2024-01-15T06:34:39;0.90;99.90
17202;DHT22;8717;53.588;10.176;2024-01-15T06:37:06;0.90;99.90
17202;DHT22;8717;53.588;10.176;2024-01-15T06:39:34;0.90;99.90
17202;DHT22;8717;53.588;10.176;2024-01-15T06:42:02;0.90;99.90
17202;DHT22;8717;53.588;10.176;2024-01-15T06:44:29;0.90;99.90
17202;DHT22;8717;53.588;10.176;2024-01-15T06:46:56;0.90;99.90
17202;DHT22;8717;53.588;10.176;2024-01-15T06:49:27;0.90;99.90
17202;DHT22;8717;53.588;10.176;2024-01-15T06:51:54;0.90;99.90
17202;DHT22;8717;53.588;10.176;2024-01-15T06:54:21;0.90;99.90
17202;DHT22;8717;53.588;10.176;2024-01-15T06:56:49;0.90;99.90
17202;DHT22;8717;53.588;10.176;2024-01-15T06:59:17;0.90;99.90
17202;DHT22;8717;53.588;10.176;2024-01-15T07:01:44;0.90;99.90
17202;DHT22;8717;53.588;10.176;2024-01-15T07:04:13;0.90;99.90
17202;DHT22;8717;53.588;10.176;2024-01-15T07:06:42;0.90;99.90
17202;DHT22;8717;53.588;10.176;2024-01-15T07:09:09;1.00;99.90
17202;DHT22;8717;53.588;10.176;2024-01-15T07:11:36;1.00;99.90
17202;DHT22;8717;53.588;10.176;2024-01-15T07:14:04;1.00;99.90
17202;DHT22;8717;53.588;10.176;2024-01-15T07:16:32;1.00;99.90
17202;DHT22;8717;53.588;10.176;2024-01-15T07:18:59;1.00;99.90
17202;DHT22;8717;53.588;10.176;2024-01-15T07:21:25;1.00;99.90
17202;DHT22;8717;53.588;10.176;2024-01-15T07:23:52;1.10;99.90
17202;DHT22;8717;53.588;10.176;2024-01-15T07:26:19;1.10;99.90
17202;DHT22;8717;53.588;10.176;2024-01-15T07:28:45;1.10;99.90
17202;DHT22;8717;53.588;10.176;2024-01-15T07:31:12;1.10;99.90
17202;DHT22;8717;53.588;10.176;2024-01-15T07:33:41;1.10;99.90
17202;DHT22;8717;53.588;10.176;2024-01-15T07:36:08;1.10;99.90
17202;DHT22;8717;53.588;10.176;2024-01-15T07:38:34;1.10;99.90
17202;DHT22;8717;53.588;10.176;2024-01-15T07:41:01;1.10;99.90
17202;DHT22;8717;53.588;10.176;2024-01-15T07:43:28;1.10;99.90
17202;DHT22;8717;53.588;10.176;2024-01-15T07:45:54;1.20;99.90
17202;DHT22;8717;53.588;10.176;2024-01-15T07:48:21;1.20;99.90
17202;DHT22;8717;53.588;10.176;2024-01-15T07:50:49;1.20;99.90
17202;DHT22;8717;53.588;10.176;2024-01-15T07:53:16;1.20;99.90
17202;DHT22;8717;53.588;10.176;2024-01-15T07:55:43;1.30;99.90
17202;DHT22;8717;53.588;10.176;2024-01-15T07:58:11;1.30;99.90
17202;DHT22;8717;53.588;10.176;2024-01-15T08:00:38;1.30;99.90
17202;DHT22;8717;53.588;10.176;2024-01-15T08:03:05;1.30;99.90
17202;DHT22;8717;53.588;10.176;2024-01-15T08:05:31;1.30;99.90
17202;DHT22;8717;53.588;10.176;2024-01-15T08:08:00;1.30;99.90
17202;DHT22;8717;53.588;10.176;2024-01-15T08:10:27;1.30;99.90
17202;DHT22;8717;53.588;10.176;2024-01-15T08:12:54;1.40;99.90
17202;DHT22;8717;53.588;10.176;2024-01-15T08:15:21;1.40;99.90
17202;DHT22;8717;53.588;10.176;2024-01-15T08:17:47;1.40;99.90
17202;DHT22;8717;53.588;10.176;2024-01-15T08:20:15;1.40;99.90
17202;DHT22;8717;53.588;10.176;2024-01-15T08:22:42;1.40;99.90
17202;DHT22;8717;53.588;10.176;2024-01-15T08:25:10;1.40;99.90
17202;DHT22;8717;53.588;10.176;2024-01-15T08:27:38;1.40;99.90
17202;DHT22;8717;53.588;10.176;2024-01-15T08:30:06;1.50;99.90
17202;DHT22;8717;53.588;10.176;2024-01-15T08:32:33;1.50;99.90
17202;DHT22;8717;53.588;10.176;2024-01-15T08:35:01;1.50;99.90
17202;DHT22;8717;53.588;10.176;2024-01-15T08:37:29;1.60;99.90
17202;DHT22;8717;53.588;10.176;2024-01-15T08:39:56;1.60;99.90
17202;DHT22;8717;53.588;10.176;2024-01-15T08:42:24;1.60;99.90
17202;DHT22;8717;53.588;10.176;2024-01-15T08:44:51;1.60;99.90
17202;DHT22;8717;53.588;10.176;2024-01-15T08:47:17;1.60;99.90
17202;DHT22;8717;53.588;10.176;2024-01-15T08:49:44;1.60;99.90
17202;DHT22;8717;53.588;10.176;2024-01-15T08:52:11;1.70;99.90
17202;DHT22;8717;53.588;10.176;2024-01-15T08:54:39;1.70;99.90
17202;DHT22;8717;53.588;10.176;2024-01-15T08:57:06;1.70;99.90
17202;DHT22;8717;53.588;10.176;2024-01-15T08:59:34;1.70;99.90
17202;DHT22;8717;53.588;10.176;2024-01-15T09:02:00;1.80;99.90
17202;DHT22;8717;53.588;10.176;2024-01-15T09:04:27;1.80;99.90
17202;DHT22;8717;53.588;10.176;2024-01-15T09:06:54;1.80;99.90
17202;DHT22;8717;53.588;10.176;2024-01-15T09:09:21;1.80;99.90
17202;DHT22;8717;53.588;10.176;2024-01-15T09:11:47;1.80;99.90
17202;DHT22;8717;53.588;10.176;2024-01-15T09:14:14;1.80;99.90
17202;DHT22;8717;53.588;10.176;2024-01-15T09:16:42;1.80;99.90
17202;DHT22;8717;53.588;10.176;2024-01-15T09:19:09;1.70;99.90
17202;DHT22;8717;53.588;10.176;2024-01-15T09:21:38;1.70;99.90
17202;DHT22;8717;53.588;10.176;2024-01-15T09:24:05;1.60;99.90
17202;DHT22;8717;53.588;10.176;2024-01-15T09:26:32;1.60;99.90
17202;DHT22;8717;53.588;10.176;2024-01-15T09:28:58;1.50;99.90
17202;DHT22;8717;53.588;10.176;2024-01-15T09:31:26;1.50;99.90
17202;DHT22;8717;53.588;10.176;2024-01-15T09:33:54;1.40;99.90
17202;DHT22;8717;53.588;10.176;2024-01-15T09:36:23;1.40;99.90
17202;DHT22;8717;53.588;10.176;2024-01-15T09:38:51;1.40;99.90
17202;DHT22;8717;53.588;10.176;2024-01-15T09:41:17;1.30;99.90
17202;DHT22;8717;53.588;10.176;2024-01-15T09:43:45;1.30;99.90
17202;DHT22;8717;53.588;10.176;2024-01-15T09:46:12;1.30;99.90
17202;DHT22;8717;53.588;10.176;2024-01-15T09:48:39;1.30;99.90
17202;DHT22;8717;53.588;10.176;2024-01-15T09:51:08;1.30;99.90
17202;DHT22;8717;53.588;10.176;2024-01-15T09:53:35;1.30;99.90
17202;DHT22;8717;53.588;10.176;2024-01-15T09:56:04;1.30;99.90
17202;DHT22;8717;53.588;10.176;2024-01-15T09:58:31;1.30;99.90
17202;DHT22;8717;53.588;10.176;2024-01-15T10:00:59;1.20;99.90
17202;DHT22;8717;53.588;10.176;2024-01-15T10:03:26;1.20;99.90
17202;DHT22;8717;53.588;10.176;2024-01-15T10:05:54;1.20;99.90
17202;DHT22;8717;53.588;10.176;2024-01-15T10:08:23;1.20;99.90
17202;DHT22;8717;53.588;10.176;2024-01-15T10:10:50;1.20;99.90
17202;DHT22;8717;53.588;10.176;2024-01-15T10:13:17;1.20;99.90
17202;DHT22;8717;53.588;10.176;2024-01-15T10:15:45;1.20;99.90
17202;DHT22;8717;53.588;10.176;2024-01-15T10:18:12;1.20;99.90
17202;DHT22;8717;53.588;10.176;2024-01-15T10:20:39;1.20;99.90
17202;DHT22;8717;53.588;10.176;2024-01-15T10:23:06;1.20;99.90
17202;DHT22;8717;53.588;10.176;2024-01-15T10:25:35;1.20;99.90
17202;DHT22;8717;53.588;10.176;2024-01-15T10:28:03;1.20;99.90
17202;DHT22;8717;53.588;10.176;2024-01-15T10:30:32;1.20;99.90
17202;DHT22;8717;53.588;10.176;2024-01-15T10:32:59;1.10;99.90
17202;DHT22;8717;53.588;10.176;2024-01-15T10:35:28;1.10;99.90
17202;DHT22;8717;53.588;10.176;2024-01-15T10:37:55;1.10;99.90
17202;DHT22;8717;53.588;10.176;2024-01-15T10:40:22;1.10;99.90
17202;DHT22;8717;53.588;10.176;2024-01-15T10:42:50;1.20;99.90
17202;DHT22;8717;53.588;10.176;2024-01-15T10:45:17;1.20;99.90
17202;DHT22;8717;53.588;10.176;2024-01-15T10:47:44;1.20;99.90
17202;DHT22;8717;53.588;10.176;2024-01-15T10:50:11;1.20;99.90
17202;DHT22;8717;53.588;10.176;2024-01-15T10:52:39;1.20;99.90
17202;DHT22;8717;53.588;10.176;2024-01-15T10:55:08;1.30;99.90
17202;DHT22;8717;53.588;10.176;2024-01-15T10:57:36;1.30;99.90
17202;DHT22;8717;53.588;10.176;2024-01-15T11:00:05;1.30;99.90
17202;DHT22;8717;53.588;10.176;2024-01-15T11:02:33;1.30;99.90
17202;DHT22;8717;53.588;10.176;2024-01-15T11:05:01;1.40;99.90
17202;DHT22;8717;53.588;10.176;2024-01-15T11:07:30;1.40;99.90
17202;DHT22;8717;53.588;10.176;2024-01-15T11:09:57;1.40;99.90
17202;DHT22;8717;53.588;10.176;2024-01-15T11:12:24;1.40;99.90
17202;DHT22;8717;53.588;10.176;2024-01-15T11:14:52;1.40;99.90
17202;DHT22;8717;53.588;10.176;2024-01-15T11:17:21;1.50;99.90
17202;DHT22;8717;53.588;10.176;2024-01-15T11:19:49;1.50;99.90
17202;DHT22;8717;53.588;10.176;2024-01-15T11:22:47;1.50;99.90
17202;DHT22;8717;53.588;10.176;2024-01-15T11:25:14;1.50;99.90
17202;DHT22;8717;53.588;10.176;2024-01-15T11:27:42;1.50;99.90
17202;DHT22;8717;53.588;10.176;2024-01-15T11:30:11;1.60;99.90
17202;DHT22;8717;53.588;10.176;2024-01-15T11:32:39;1.60;99.90
17202;DHT22;8717;53.588;10.176;2024-01-15T11:35:08;1.60;99.90
17202;DHT22;8717;53.588;10.176;2024-01-15T11:37:57;1.60;99.90
17202;DHT22;8717;53.588;10.176;2024-01-15T11:40:37;1.60;99.90
17202;DHT22;8717;53.588;10.176;2024-01-15T11:43:05;1.70;99.90
17202;DHT22;8717;53.588;10.176;2024-01-15T11:45:32;1.70;99.90
17202;DHT22;8717;53.588;10.176;2024-01-15T11:48:14;1.70;99.90
17202;DHT22;8717;53.588;10.176;2024-01-15T11:50:43;1.70;99.90
17202;DHT22;8717;53.588;10.176;2024-01-15T11:53:27;1.70;99.90
17202;DHT22;8717;53.588;10.176;2024-01-15T11:55:58;1.80;99.90
17202;DHT22;8717;53.588;10.176;2024-01-15T11:58:25;1.80;99.90
17202;DHT22;8717;53.588;10.176;2024-01-15T12:00:52;1.90;99.90
17202;DHT22;8717;53.588;10.176;2024-01-15T12:03:22;1.90;99.90
17202;DHT22;8717;53.588;10.176;2024-01-15T12:05:49;2.00;99.90
17202;DHT22;8717;53.588;10.176;2024-01-15T12:08:21;2.10;99.90
17202;DHT22;8717;53.588;10.176;2024-01-15T12:10:48;2.20;99.90
17202;DHT22;8717;53.588;10.176;2024-01-15T12:13:15;2.20;99.90
17202;DHT22;8717;53.588;10.176;2024-01-15T12:15:44;2.20;99.90
17202;DHT22;8717;53.588;10.176;2024-01-15T12:18:12;2.30;99.90
17202;DHT22;8717;53.588;10.176;2024-01-15T12:20:42;2.30;99.90
17202;DHT22;8717;53.588;10.176;2024-01-15T12:23:09;2.30;99.90
17202;DHT22;8717;53.588;10.176;2024-01-15T12:25:36;2.30;99.90
17202;DHT22;8717;53.588;10.176;2024-01-15T12:28:04;2.40;99.90
17202;DHT22;8717;53.588;10.176;2024-01-15T12:30:33;2.40;99.90
17202;DHT22;8717;53.588;10.176;2024-01-15T12:33:02;2.40;99.90
17202;DHT22;8717;53.588;10.176;2024-01-15T12:35:30;2.40;99.90
17202;DHT22;8717;53.588;10.176;2024-01-15T12:37:59;2.40;99.90
17202;DHT22;8717;53.588;10.176;2024-01-15T12:40:27;2.40;99.90
17202;DHT22;8717;53.588;10.176;2024-01-15T12:42:55;2.40;99.90
17202;DHT22;8717;53.588;10.176;2024-01-15T12:45:22;2.40;99.90
17202;DHT22;8717;53.588;10.176;2024-01-15T12:47:48;2.40;99.90
17202;DHT22;8717;53.588;10.176;2024-01-15T12:50:16;2.50;99.90
17202;DHT22;8717;53.588;10.176;2024-01-15T12:52:43;2.40;99.90
17202;DHT22;8717;53.588;10.176;2024-01-15T12:55:11;2.40;99.90
17202;DHT22;8717;53.588;10.176;2024-01-15T12:57:39;2.40;99.90
17202;DHT22;8717;53.588;10.176;2024-01-15T13:00:06;2.40;99.90
17202;DHT22;8717;53.588;10.176;2024-01-15T13:02:37;2.40;99.90
17202;DHT22;8717;53.588;10.176;2024-01-15T13:05:05;2.40;99.90
17202;DHT22;8717;53.588;10.176;2024-01-15T13:07:32;2.40;99.90
17202;DHT22;8717;53.588;10.176;2024-01-15T13:09:59;2.30;99.90
17202;DHT22;8717;53.588;10.176;2024-01-15T13:12:27;2.30;99.90
17202;DHT22;8717;53.588;10.176;2024-01-15T13:14:54;2.30;99.90
17202;DHT22;8717;53.588;10.176;2024-01-15T13:17:21;2.30;99.90
17202;DHT22;8717;53.588;10.176;2024-01-15T13:19:48;2.30;99.90
17202;DHT22;8717;53.588;10.176;2024-01-15T13:22:15;2.30;99.90
17202;DHT22;8717;53.588;10.176;2024-01-15T13:24:42;2.30;99.90
17202;DHT22;8717;53.588;10.176;2024-01-15T13:27:09;2.20;99.90
17202;DHT22;8717;53.588;10.176;2024-01-15T13:29:37;2.20;99.90
17202;DHT22;8717;53.588;10.176;2024-01-15T13:32:04;2.20;99.90
17202;DHT22;8717;53.588;10.176;2024-01-15T13:34:31;2.10;99.90
17202;DHT22;8717;53.588;10.176;2024-01-15T13:36:58;2.10;99.90
17202;DHT22;8717;53.588;10.176;2024-01-15T13:39:25;2.10;99.90
17202;DHT22;8717;53.588;10.176;2024-01-15T13:41:51;2.10;99.90
17202;DHT22;8717;53.588;10.176;2024-01-15T13:44:18;2.10;99.90
17202;DHT22;8717;53.588;10.176;2024-01-15T13:46:47;2.10;99.90
17202;DHT22;8717;53.588;10.176;2024-01-15T13:49:13;2.10;99.90
17202;DHT22;8717;53.588;10.176;2024-01-15T13:51:40;2.10;99.90
17202;DHT22;8717;53.588;10.176;2024-01-15T13:54:07;2.00;99.90
17202;DHT22;8717;53.588;10.176;2024-01-15T13:56:34;2.00;99.90
17202;DHT22;8717;53.588;10.176;2024-01-15T13:59:01;2.00;99.90
17202;DHT22;8717;53.588;10.176;2024-01-15T14:01:29;1.90;99.90
17202;DHT22;8717;53.588;10.176;2024-01-15T14:03:57;1.90;99.90
17202;DHT22;8717;53.588;10.176;2024-01-15T14:06:24;1.80;99.90
17202;DHT22;8717;53.588;10.176;2024-01-15T14:08:51;1.80;99.90
17202;DHT22;8717;53.588;10.176;2024-01-15T14:11:18;1.70;99.90
17202;DHT22;8717;53.588;10.176;2024-01-15T14:13:45;1.70;99.90
17202;DHT22;8717;53.588;10.176;2024-01-15T14:16:12;1.70;99.90
17202;DHT22;8717;53.588;10.176;2024-01-15T14:18:39;1.60;99.90
17202;DHT22;8717;53.588;10.176;2024-01-15T14:21:07;1.60;99.90
17202;DHT22;8717;53.588;10.176;2024-01-15T14:23:34;1.60;99.90
17202;DHT22;8717;53.588;10.176;2024-01-15T14:26:01;1.50;99.90
17202;DHT22;8717;53.588;10.176;2024-01-15T14:28:28;1.50;99.90
17202;DHT22;8717;53.588;10.176;2024-01-15T14:30:54;1.50;99.90
17202;DHT22;8717;53.588;10.176;2024-01-15T14:33:23;1.40;99.90
17202;DHT22;8717;53.588;10.176;2024-01-15T14:35:50;1.40;99.90
17202;DHT22;8717;53.588;10.176;2024-01-15T14:38:18;1.40;99.90
17202;DHT22;8717;53.588;10.176;2024-01-15T14:40:45;1.40;99.90
17202;DHT22;8717;53.588;10.176;2024-01-15T14:43:12;1.40;99.90
17202;DHT22;8717;53.588;10.176;2024-01-15T14:45:38;1.30;99.90
17202;DHT22;8717;53.588;10.176;2024-01-15T14:48:05;1.30;99.90
17202;DHT22;8717;53.588;10.176;2024-01-15T14:50:32;1.30;99.90
17202;DHT22;8717;53.588;10.176;2024-01-15T14:52:59;1.20;99.90
17202;DHT22;8717;53.588;10.176;2024-01-15T14:55:27;1.20;99.90
17202;DHT22;8717;53.588;10.176;2024-01-15T14:57:54;1.10;99.90
17202;DHT22;8717;53.588;10.176;2024-01-15T15:00:21;1.10;99.90
17202;DHT22;8717;53.588;10.176;2024-01-15T15:02:48;1.00;99.90
17202;DHT22;8717;53.588;10.176;2024-01-15T15:05:15;1.00;99.90
17202;DHT22;8717;53.588;10.176;2024-01-15T15:07:42;0.90;99.90
17202;DHT22;8717;53.588;10.176;2024-01-15T15:10:09;0.90;99.90
17202;DHT22;8717;53.588;10.176;2024-01-15T15:12:38;0.80;99.90
17202;DHT22;8717;53.588;10.176;2024-01-15T15:15:06;0.70;99.90
17202;DHT22;8717;53.588;10.176;2024-01-15T15:17:32;0.70;99.90
17202;DHT22;8717;53.588;10.176;2024-01-15T15:20:00;0.60;99.90
17202;DHT22;8717;53.588;10.176;2024-01-15T15:22:28;0.60;99.90
17202;DHT22;8717;53.588;10.176;2024-01-15T15:24:54;0.50;99.90
17202;DHT22;8717;53.588;10.176;2024-01-15T15:27:21;0.50;99.90
17202;DHT22;8717;53.588;10.176;2024-01-15T15:29:49;0.40;99.90
17202;DHT22;8717;53.588;10.176;2024-01-15T15:32:16;0.40;99.90
17202;DHT22;8717;53.588;10.176;2024-01-15T15:34:43;0.30;99.90
17202;DHT22;8717;53.588;10.176;2024-01-15T15:37:10;0.30;99.90
17202;DHT22;8717;53.588;10.176;2024-01-15T15:39:37;0.20;99.90
17202;DHT22;8717;53.588;10.176;2024-01-15T15:42:04;0.20;99.90
17202;DHT22;8717;53.588;10.176;2024-01-15T15:44:31;0.20;99.90
17202;DHT22;8717;53.588;10.176;2024-01-15T15:46:59;0.10;99.90